Time;durP1;ratioP1;P1;durP2;ratioP2;P2;SDS_P1;SDS_P2;PMS_P1;PMS_P2;Temp;Humidity;BMP_temperature;BMP_pressure;BME280_temperature;BME280_humidity;BME280_pressure;Samples;Min_cycle;Max_cycle;Signal;HPM_P1;HPM_P2
2022/02/07 00:00:44;;;;;;;61.30;31.38;;;21.70;97.30;;;;;;4221079;28;20044;-66
2022/02/07 00:05:04;;;;;;;143.32;70.43;;;21.80;97.10;;;;;;4223928;28;20031;-66
2022/02/07 00:07:16;;;;;;;97.80;52.28;;;21.80;97.20;;;;;;4218232;28;20394;-66
2022/02/07 00:09:21;;;;;;;64.10;38.85;;;21.90;97.00;;;;;;4222406;28;20039;-67
2022/02/07 00:11:31;;;;;;;66.22;36.70;;;22.00;97.00;;;;;;4221166;28;20131;-66
2022/02/07 00:13:35;;;;;;;59.50;33.42;;;21.90;97.10;;;;;;4221180;28;20467;-66
2022/02/07 00:15:42;;;;;;;57.35;29.58;;;21.90;96.90;;;;;;4224452;28;20048;-66
2022/02/07 00:17:47;;;;;;;43.75;24.98;;;22.10;96.80;;;;;;4218213;27;20653;-66
2022/02/07 00:19:51;;;;;;;40.92;24.92;;;22.00;96.70;;;;;;4222544;28;20044;-68
2022/02/07 00:21:58;;;;;;;34.95;23.13;;;22.00;96.80;;;;;;4225315;28;20113;-65
2022/02/07 00:24:03;;;;;;;35.85;21.70;;;22.00;96.70;;;;;;4218808;28;20127;-66
2022/02/07 00:26:07;;;;;;;32.35;20.25;;;22.10;96.70;;;;;;4218224;28;20482;-66
2022/02/07 00:28:12;;;;;;;31.40;20.65;;;22.00;96.80;;;;;;4225603;28;20047;-66
2022/02/07 00:30:18;;;;;;;42.28;22.08;;;22.10;96.70;;;;;;4222281;28;20040;-64
2022/02/07 00:32:22;;;;;;;36.08;21.23;;;22.20;96.60;;;;;;4225463;28;20044;-64
2022/02/07 00:34:26;;;;;;;37.92;21.65;;;22.10;96.70;;;;;;4226686;28;20120;-67
2022/02/07 00:36:32;;;;;;;35.10;22.02;;;22.20;96.40;;;;;;4225976;28;20040;-67
2022/02/07 00:38:36;;;;;;;28.35;20.83;;;22.40;96.30;;;;;;4225603;28;20048;-67
2022/02/07 00:45:14;;;;;;;29.98;19.50;;;22.50;96.20;;;;;;4224468;28;20467;-65
2022/02/07 00:47:18;;;;;;;34.38;20.80;;;22.60;96.20;;;;;;4207635;28;20067;-66
2022/02/07 00:49:22;;;;;;;35.47;21.38;;;22.60;96.20;;;;;;4224751;28;20093;-65
2022/02/07 00:51:27;;;;;;;37.13;22.00;;;22.60;96.20;;;;;;4224406;28;20035;-66
2022/02/07 00:53:33;;;;;;;37.28;21.33;;;22.60;96.10;;;;;;4222264;28;20039;-66
2022/02/07 00:55:38;;;;;;;32.55;21.45;;;22.60;96.10;;;;;;4223668;28;20051;-66
2022/02/07 00:57:42;;;;;;;33.55;21.55;;;22.70;96.10;;;;;;4224325;28;20039;-65
2022/02/07 00:59:47;;;;;;;31.83;20.80;;;22.60;96.10;;;;;;4223561;28;20077;-65
2022/02/07 01:01:51;;;;;;;28.85;18.20;;;22.60;96.20;;;;;;4225417;28;20862;-65
2022/02/07 01:03:56;;;;;;;29.50;19.02;;;22.70;96.10;;;;;;4224143;28;20063;-66
2022/02/07 01:06:09;;;;;;;28.02;18.90;;;22.60;96.00;;;;;;4224500;28;20685;-66
2022/02/07 01:08:17;;;;;;;27.60;17.52;;;22.70;96.10;;;;;;4226019;28;20150;-66
2022/02/07 01:10:27;;;;;;;30.83;17.92;;;22.70;96.00;;;;;;4224197;28;20086;-66
2022/02/07 01:20:54;;;;;;;25.48;18.50;;;22.90;95.60;;;;;;4226523;28;20406;-66
2022/02/07 01:52:11;;;;;;;23.50;16.98;;;23.00;95.30;;;;;;4230390;28;20485;-63
2022/02/07 01:54:31;;;;;;;28.52;17.55;;;23.10;95.30;;;;;;4219722;28;20064;-66
2022/02/07 01:56:45;;;;;;;28.02;18.35;;;23.00;95.70;;;;;;4237536;27;20050;-66
2022/02/07 01:58:53;;;;;;;31.00;17.65;;;23.00;95.50;;;;;;4227577;28;20040;-66
2022/02/07 02:01:05;;;;;;;32.23;18.03;;;23.10;95.60;;;;;;4214144;28;20052;-64
2022/02/07 02:03:10;;;;;;;25.63;18.02;;;23.20;95.30;;;;;;4235031;27;20039;-64
2022/02/07 02:05:31;;;;;;;32.45;17.95;;;23.30;95.30;;;;;;4226459;28;20048;-64
2022/02/07 02:07:39;;;;;;;28.55;17.98;;;23.30;95.20;;;;;;4228012;28;20040;-65
2022/02/07 02:09:46;;;;;;;37.47;17.50;;;23.40;95.20;;;;;;4228587;28;20559;-64
2022/02/07 02:11:52;;;;;;;27.48;18.00;;;23.60;95.20;;;;;;4228351;28;20079;-66
2022/02/07 02:16:19;;;;;;;24.27;17.40;;;23.80;94.70;;;;;;4243618;27;20050;-65
2022/02/07 02:32:29;;;;;;;27.35;17.80;;;23.60;95.00;;;;;;4221765;28;20134;-65
2022/02/07 02:45:39;;;;;;;23.52;17.23;;;24.10;94.20;;;;;;4218819;28;20051;-65
2022/02/07 02:47:55;;;;;;;25.70;18.65;;;24.20;94.20;;;;;;4214660;28;20044;-65
2022/02/07 02:50:16;;;;;;;26.23;16.47;;;24.20;93.80;;;;;;4208644;28;20048;-65
2022/02/07 02:52:20;;;;;;;25.70;17.30;;;24.20;93.70;;;;;;4226019;28;20118;-64
2022/02/07 02:54:25;;;;;;;22.95;16.70;;;24.30;93.50;;;;;;4222312;28;20047;-65
2022/02/07 02:56:30;;;;;;;24.50;17.10;;;24.30;93.20;;;;;;4228084;28;20052;-63
2022/02/07 02:58:35;;;;;;;22.38;16.80;;;24.50;93.30;;;;;;4224480;28;20039;-64
2022/02/07 03:00:42;;;;;;;26.40;17.38;;;24.50;93.20;;;;;;4228901;28;20403;-64
2022/02/07 03:02:57;;;;;;;29.55;17.35;;;24.60;93.40;;;;;;4222027;28;20059;-64
2022/02/07 03:05:01;;;;;;;23.52;16.23;;;24.60;93.30;;;;;;4222800;28;20525;-65
2022/02/07 03:07:06;;;;;;;23.65;17.23;;;24.70;93.00;;;;;;4227149;28;20085;-64
2022/02/07 03:09:14;;;;;;;24.65;15.95;;;24.70;92.40;;;;;;4227860;28;20051;-63
2022/02/07 03:11:24;;;;;;;25.30;16.13;;;24.80;92.60;;;;;;4226045;28;20148;-63
2022/02/07 03:13:45;;;;;;;24.70;16.27;;;24.90;92.60;;;;;;4227239;28;20097;-65
2022/02/07 03:18:11;;;;;;;25.15;16.77;;;24.90;92.20;;;;;;4228956;28;20065;-65
2022/02/07 03:20:16;;;;;;;25.35;17.00;;;25.00;92.20;;;;;;4223594;28;20028;-64
2022/02/07 03:22:21;;;;;;;28.33;19.02;;;25.00;92.30;;;;;;4225910;28;20071;-64
2022/02/07 03:24:25;;;;;;;22.08;16.33;;;25.10;92.20;;;;;;4226176;28;20781;-64
2022/02/07 03:26:47;;;;;;;24.65;17.08;;;25.20;92.00;;;;;;4216956;28;20434;-65
2022/02/07 03:28:59;;;;;;;28.00;17.35;;;25.20;91.60;;;;;;4224604;28;20434;-65
2022/02/07 03:31:04;;;;;;;28.13;17.90;;;25.20;91.80;;;;;;4221906;28;20513;-65
2022/02/07 03:33:08;;;;;;;25.95;17.80;;;25.30;91.80;;;;;;4226955;28;20044;-65
2022/02/07 03:35:15;;;;;;;25.88;16.73;;;25.30;91.80;;;;;;4222141;28;20106;-65
2022/02/07 03:37:21;;;;;;;28.65;17.70;;;25.40;91.60;;;;;;4229189;28;20039;-65
2022/02/07 03:39:26;;;;;;;31.23;17.45;;;25.40;91.80;;;;;;4225583;28;20550;-65
2022/02/07 03:41:30;;;;;;;30.40;18.60;;;25.50;91.70;;;;;;4224872;28;20043;-65
2022/02/07 03:43:35;;;;;;;31.48;19.35;;;25.60;91.30;;;;;;4227293;28;20044;-66
2022/02/07 03:45:40;;;;;;;27.27;18.25;;;25.60;91.50;;;;;;4227532;28;20100;-65
2022/02/07 03:47:50;;;;;;;25.33;17.58;;;25.70;91.70;;;;;;4225589;28;20140;-65
2022/02/07 03:50:02;;;;;;;30.67;18.90;;;25.70;92.00;;;;;;4220728;28;20048;-65
2022/02/07 03:52:10;;;;;;;25.95;17.92;;;25.80;91.70;;;;;;4214014;28;20074;-66
2022/02/07 03:54:15;;;;;;;26.17;19.75;;;25.80;91.40;;;;;;4228660;27;20043;-65
2022/02/07 03:56:21;;;;;;;28.15;18.48;;;25.80;91.10;;;;;;4217394;28;20080;-66
2022/02/07 03:58:26;;;;;;;24.50;18.52;;;25.80;91.20;;;;;;4222359;28;20044;-65
2022/02/07 04:00:32;;;;;;;24.17;17.83;;;25.90;91.30;;;;;;4215315;28;20047;-66
2022/02/07 04:03:02;;;;;;;31.48;19.23;;;25.90;91.30;;;;;;4224715;28;20520;-65
2022/02/07 04:05:40;;;;;;;27.05;18.23;;;26.10;91.20;;;;;;4223781;28;20802;-66
2022/02/07 04:07:43;;;;;;;26.33;17.23;;;26.10;91.20;;;;;;4226953;28;20096;-66
2022/02/07 04:09:52;;;;;;;24.27;17.23;;;26.10;91.60;;;;;;4225332;28;20127;-65
2022/02/07 04:12:00;;;;;;;25.15;16.45;;;26.20;91.90;;;;;;4213492;28;20056;-65
2022/02/07 04:14:07;;;;;;;25.25;16.45;;;26.30;92.00;;;;;;4219236;28;20047;-65
2022/02/07 04:16:11;;;;;;;26.60;15.43;;;26.30;91.90;;;;;;4224839;28;20058;-65
2022/02/07 04:18:23;;;;;;;21.98;15.80;;;26.40;91.90;;;;;;4226358;28;20071;-65
2022/02/07 04:20:28;;;;;;;22.15;15.13;;;26.40;91.70;;;;;;4227842;28;20043;-66
2022/02/07 04:22:32;;;;;;;19.15;14.63;;;26.50;91.60;;;;;;4225898;28;20773;-65
2022/02/07 04:24:55;;;;;;;20.95;14.43;;;26.60;91.80;;;;;;4224627;28;20067;-65
2022/02/07 04:27:06;;;;;;;21.92;14.60;;;26.70;91.50;;;;;;4224545;28;20119;-66
2022/02/07 04:29:11;;;;;;;19.67;14.48;;;26.70;91.50;;;;;;4225305;28;20090;-65
2022/02/07 04:31:16;;;;;;;22.98;14.98;;;26.80;91.40;;;;;;4203203;28;20072;-66
2022/02/07 04:33:20;;;;;;;26.17;15.73;;;26.80;91.10;;;;;;4233096;27;20050;-65
2022/02/07 04:35:26;;;;;;;21.08;15.18;;;26.80;90.90;;;;;;4216584;28;20050;-66
2022/02/07 04:37:31;;;;;;;18.38;14.90;;;26.90;90.90;;;;;;4232451;27;20373;-65
2022/02/07 04:39:35;;;;;;;20.58;15.18;;;27.00;90.90;;;;;;4216028;28;20093;-65
2022/02/07 04:41:46;;;;;;;24.83;15.52;;;27.00;90.40;;;;;;4216481;28;20042;-66
2022/02/07 04:43:59;;;;;;;22.80;14.57;;;27.00;90.10;;;;;;4217870;28;20123;-65
2022/02/07 04:46:31;;;;;;;20.92;14.43;;;27.00;90.20;;;;;;4220188;28;20382;-65
2022/02/07 04:57:50;;;;;;;17.15;13.50;;;27.20;90.20;;;;;;4214545;28;20056;-66
2022/02/07 05:00:07;;;;;;;17.45;13.82;;;27.30;90.00;;;;;;4220287;28;20549;-66
2022/02/07 05:04:34;;;;;;;22.60;13.20;;;27.30;89.10;;;;;;4222270;28;20071;-65
2022/02/07 05:13:48;;;;;;;18.58;12.70;;;27.50;89.60;;;;;;4217391;28;20125;-66
2022/02/07 05:15:55;;;;;;;21.95;12.30;;;27.50;89.10;;;;;;4220247;28;20039;-66
2022/02/07 05:17:59;;;;;;;18.65;13.45;;;27.60;88.90;;;;;;4222449;28;20505;-65
2022/02/07 05:20:23;;;;;;;19.42;12.45;;;27.70;89.10;;;;;;4222931;28;20051;-65
2022/02/07 05:22:46;;;;;;;17.20;12.40;;;27.70;88.70;;;;;;4224376;28;20047;-65
2022/02/07 05:24:50;;;;;;;15.60;12.45;;;27.70;88.40;;;;;;4227228;28;20122;-65
2022/02/07 05:26:58;;;;;;;19.20;13.35;;;27.80;88.00;;;;;;4225001;28;20047;-65
2022/02/07 05:29:22;;;;;;;19.13;12.18;;;27.80;88.00;;;;;;4226402;28;20119;-65
2022/02/07 05:31:39;;;;;;;15.27;13.18;;;27.90;88.60;;;;;;4227949;28;20044;-65
2022/02/07 05:33:53;;;;;;;21.40;13.23;;;28.00;87.00;;;;;;4223242;28;20092;-66
2022/02/07 05:36:17;;;;;;;19.70;12.80;;;28.00;87.50;;;;;;4226049;28;20047;-66
2022/02/07 05:38:39;;;;;;;17.25;12.90;;;28.10;87.00;;;;;;4224049;28;20535;-65
2022/02/07 05:41:00;;;;;;;16.75;12.45;;;28.10;86.50;;;;;;4223216;28;20117;-65
2022/02/07 05:43:07;;;;;;;20.42;12.35;;;28.00;86.90;;;;;;4222511;28;20051;-65
2022/02/07 05:45:24;;;;;;;18.92;12.48;;;28.10;87.60;;;;;;4226969;28;20070;-65
2022/02/07 05:47:48;;;;;;;17.30;12.50;;;28.20;87.30;;;;;;4225937;28;20044;-66
2022/02/07 05:50:11;;;;;;;15.90;12.25;;;28.20;86.70;;;;;;4226895;28;20469;-65
2022/02/07 05:52:34;;;;;;;15.70;12.40;;;28.30;86.50;;;;;;4215334;28;20048;-64
2022/02/07 05:54:51;;;;;;;16.65;12.43;;;28.30;86.80;;;;;;4224574;28;20066;-65
2022/02/07 05:57:14;;;;;;;19.30;13.80;;;28.30;86.80;;;;;;4226245;28;20731;-65
2022/02/07 05:59:39;;;;;;;18.90;13.45;;;28.40;87.40;;;;;;4217616;28;20061;-66
2022/02/07 06:02:03;;;;;;;21.17;13.73;;;28.50;87.20;;;;;;4220086;28;21595;-65
2022/02/07 06:04:08;;;;;;;18.88;13.05;;;28.50;87.20;;;;;;4221587;28;20044;-65
2022/02/07 06:06:13;;;;;;;18.40;12.13;;;28.60;87.40;;;;;;4224222;28;20046;-66
2022/02/07 06:08:19;;;;;;;16.67;11.73;;;28.60;86.60;;;;;;4223512;28;20040;-65
2022/02/07 06:10:24;;;;;;;14.30;11.77;;;28.60;86.30;;;;;;4225195;28;20139;-66
2022/02/07 06:12:28;;;;;;;17.15;11.88;;;28.70;86.40;;;;;;4224643;28;20051;-65
2022/02/07 06:14:33;;;;;;;19.08;12.85;;;28.80;86.10;;;;;;4207311;28;20066;-65
2022/02/07 06:16:39;;;;;;;12.23;10.93;;;28.90;86.40;;;;;;4223410;28;20658;-66
2022/02/07 06:18:48;;;;;;;14.50;11.00;;;28.90;86.20;;;;;;4214234;28;20359;-65
2022/02/07 06:21:01;;;;;;;16.33;12.68;;;28.90;86.20;;;;;;4232139;28;20435;-66
2022/02/07 06:23:05;;;;;;;19.63;14.15;;;28.90;86.40;;;;;;4231881;27;20063;-65
2022/02/07 06:25:11;;;;;;;15.85;12.25;;;28.90;85.90;;;;;;4223898;28;20410;-65
2022/02/07 06:27:15;;;;;;;18.48;12.18;;;28.90;85.20;;;;;;4208319;28;20067;-65
2022/02/07 06:29:20;;;;;;;14.73;12.07;;;29.00;85.40;;;;;;4224432;28;20100;-64
2022/02/07 06:31:30;;;;;;;17.83;11.43;;;29.10;84.90;;;;;;4226529;28;20077;-65
2022/02/07 06:33:36;;;;;;;15.93;11.38;;;29.00;85.20;;;;;;4223454;28;20042;-66
2022/02/07 06:35:44;;;;;;;14.63;11.02;;;29.10;84.10;;;;;;4227889;28;20483;-66
2022/02/07 06:37:51;;;;;;;14.95;10.63;;;29.10;84.10;;;;;;4214238;28;20518;-65
2022/02/07 06:39:56;;;;;;;14.55;11.50;;;29.20;84.50;;;;;;4225659;28;20090;-66
2022/02/07 06:42:01;;;;;;;15.60;11.32;;;29.20;84.30;;;;;;4209768;28;20044;-63
2022/02/07 06:44:07;;;;;;;13.77;10.30;;;29.30;84.50;;;;;;4228969;28;20090;-65
2022/02/07 06:46:11;;;;;;;14.93;10.65;;;29.30;84.50;;;;;;4217726;28;20667;-64
2022/02/07 06:48:18;;;;;;;15.98;11.30;;;29.30;84.20;;;;;;4227625;28;20088;-65
2022/02/07 06:50:23;;;;;;;14.77;10.30;;;29.30;84.30;;;;;;4228411;28;20035;-65
2022/02/07 06:52:28;;;;;;;14.82;10.48;;;29.40;84.00;;;;;;4226509;28;20878;-65
2022/02/07 06:54:32;;;;;;;14.02;10.30;;;29.50;83.20;;;;;;4214587;28;20078;-65
2022/02/07 06:56:39;;;;;;;14.82;10.77;;;29.50;83.80;;;;;;4220526;28;20060;-65
2022/02/07 06:58:44;;;;;;;12.77;10.57;;;29.60;85.00;;;;;;4224207;28;20042;-65
2022/02/07 07:00:49;;;;;;;13.57;10.27;;;29.50;84.00;;;;;;4226680;28;20701;-65
2022/02/07 07:02:58;;;;;;;14.50;10.52;;;29.60;83.70;;;;;;4226480;28;20039;-66
2022/02/07 07:05:11;;;;;;;15.25;12.02;;;29.60;83.80;;;;;;4226335;28;20036;-65
2022/02/07 07:07:19;;;;;;;14.48;11.50;;;29.50;83.60;;;;;;4222306;28;20052;-66
2022/02/07 07:09:24;;;;;;;16.30;10.73;;;29.50;83.60;;;;;;4225994;28;20528;-65
2022/02/07 07:11:29;;;;;;;14.13;10.75;;;29.50;84.10;;;;;;4227024;28;20043;-65
2022/02/07 07:13:46;;;;;;;22.13;12.07;;;29.50;83.90;;;;;;4225184;28;20052;-65
2022/02/07 07:15:59;;;;;;;13.25;10.20;;;29.50;82.90;;;;;;4226759;28;20398;-65
2022/02/07 07:18:06;;;;;;;14.32;10.65;;;29.50;83.10;;;;;;4228500;28;20047;-65
2022/02/07 07:20:12;;;;;;;13.32;10.55;;;29.40;83.30;;;;;;4227388;28;20373;-65
2022/02/07 07:22:18;;;;;;;14.02;10.32;;;29.30;83.10;;;;;;4235121;27;20529;-64
2022/02/07 07:24:24;;;;;;;14.77;10.63;;;29.20;82.90;;;;;;4217467;28;20119;-64
2022/02/07 07:26:30;;;;;;;13.48;10.73;;;29.20;83.30;;;;;;4226437;28;20854;-64
2022/02/07 07:28:40;;;;;;;17.60;10.52;;;29.20;83.40;;;;;;4225518;28;20071;-64
2022/02/07 07:30:50;;;;;;;14.43;10.73;;;29.40;82.90;;;;;;4227718;28;20071;-66
2022/02/07 07:33:02;;;;;;;13.27;10.00;;;29.40;82.90;;;;;;4226990;28;20583;-64
2022/02/07 07:35:07;;;;;;;15.68;10.48;;;29.50;83.30;;;;;;4227508;28;20062;-63
2022/02/07 07:37:13;;;;;;;14.93;10.90;;;29.50;83.50;;;;;;4227857;28;20044;-63
2022/02/07 07:39:18;;;;;;;12.32;10.10;;;29.40;83.20;;;;;;4228296;28;20478;-63
2022/02/07 07:41:26;;;;;;;12.88;10.35;;;29.50;82.80;;;;;;4224872;28;20040;-64
2022/02/07 07:43:37;;;;;;;14.23;10.77;;;29.50;83.30;;;;;;4223693;28;20043;-64
2022/02/07 07:46:02;;;;;;;12.65;10.48;;;29.40;84.20;;;;;;4228341;28;20039;-64
2022/02/07 07:48:27;;;;;;;13.18;10.23;;;29.40;84.00;;;;;;4226252;28;20055;-65
2022/02/07 08:02:49;;;;;;;17.25;10.63;;;29.40;84.10;;;;;;4224685;28;20142;-66
2022/02/07 08:05:07;;;;;;;13.90;10.43;;;29.30;83.90;;;;;;4227111;28;20478;-66
2022/02/07 08:07:29;;;;;;;16.30;10.70;;;29.30;83.70;;;;;;4218124;28;20047;-67
2022/02/07 08:09:48;;;;;;;12.45;10.05;;;29.40;83.70;;;;;;4221004;28;20139;-67
2022/02/07 08:11:53;;;;;;;12.63;10.65;;;29.40;84.10;;;;;;4219945;28;20154;-67
2022/02/07 08:13:59;;;;;;;14.98;10.52;;;29.40;84.20;;;;;;4224577;28;20143;-67
2022/02/07 08:16:06;;;;;;;12.82;9.48;;;29.40;84.30;;;;;;4219217;28;20547;-67
2022/02/07 08:18:12;;;;;;;14.18;10.60;;;29.30;84.10;;;;;;4220540;28;20517;-66
2022/02/07 08:20:16;;;;;;;12.68;10.20;;;29.20;83.80;;;;;;4220026;28;20040;-67
2022/02/07 08:22:23;;;;;;;15.57;10.07;;;29.20;84.00;;;;;;4222787;28;20048;-66
2022/02/07 08:24:29;;;;;;;18.13;11.25;;;29.10;84.40;;;;;;4219557;28;20052;-67
2022/02/07 08:26:34;;;;;;;17.08;10.95;;;29.10;84.20;;;;;;4217106;28;20044;-67
2022/02/07 08:28:39;;;;;;;17.42;10.25;;;29.10;84.10;;;;;;4222600;28;20047;-67
2022/02/07 08:30:43;;;;;;;12.90;10.80;;;29.10;84.00;;;;;;4221909;28;20486;-67
2022/02/07 08:32:47;;;;;;;22.05;10.52;;;29.10;83.80;;;;;;4220783;28;20566;-67
2022/02/07 08:34:53;;;;;;;12.75;10.48;;;29.20;83.30;;;;;;4219964;28;20043;-67
2022/02/07 08:37:02;;;;;;;13.15;10.32;;;29.20;83.70;;;;;;4223128;28;20044;-67
2022/02/07 08:39:07;;;;;;;14.57;10.23;;;29.20;83.90;;;;;;4226331;28;20128;-67
2022/02/07 08:41:11;;;;;;;15.55;10.27;;;29.20;84.30;;;;;;4226646;28;20458;-67
2022/02/07 08:43:15;;;;;;;13.35;11.10;;;29.20;84.50;;;;;;4220444;28;20040;-66
2022/02/07 08:45:20;;;;;;;14.00;10.07;;;29.30;83.90;;;;;;4223018;28;20517;-66
2022/02/07 08:47:25;;;;;;;16.35;10.45;;;29.30;83.90;;;;;;4223467;28;20044;-66
2022/02/07 08:49:29;;;;;;;18.60;10.32;;;29.40;83.70;;;;;;4221459;28;20067;-66
2022/02/07 08:51:35;;;;;;;15.32;10.43;;;29.40;83.40;;;;;;4224484;28;20039;-67
2022/02/07 08:53:43;;;;;;;15.38;9.90;;;29.40;83.30;;;;;;4218888;28;20399;-67
2022/02/07 08:55:51;;;;;;;16.15;10.90;;;29.40;82.10;;;;;;4221383;28;20050;-66
2022/02/07 08:57:57;;;;;;;14.98;11.40;;;29.40;82.60;;;;;;4223267;28;20043;-67
2022/02/07 09:00:17;;;;;;;13.98;10.93;;;29.40;83.30;;;;;;4224190;28;20135;-67
2022/02/07 09:02:52;;;;;;;14.52;11.02;;;29.40;83.70;;;;;;4224048;28;20040;-66
2022/02/07 09:04:57;;;;;;;14.30;11.23;;;29.40;84.20;;;;;;4226400;28;20108;-66
2022/02/07 09:07:11;;;;;;;14.80;11.10;;;29.50;84.10;;;;;;4224724;28;20059;-66
2022/02/07 09:09:20;;;;;;;15.00;12.05;;;29.50;83.70;;;;;;4222792;28;20062;-66
2022/02/07 09:11:24;;;;;;;21.88;14.23;;;29.50;83.20;;;;;;4222456;28;20127;-67
2022/02/07 09:13:31;;;;;;;24.90;15.95;;;29.50;82.90;;;;;;4213798;28;20082;-66
2022/02/07 09:17:41;;;;;;;17.33;12.18;;;29.50;83.30;;;;;;4222029;28;20112;-66
2022/02/07 09:19:45;;;;;;;14.63;11.32;;;29.60;83.00;;;;;;4226848;28;20027;-65
2022/02/07 09:21:50;;;;;;;14.88;11.05;;;29.50;82.90;;;;;;4226865;28;20131;-66
2022/02/07 09:23:55;;;;;;;13.00;10.70;;;29.50;83.10;;;;;;4226200;28;20066;-65
2022/02/07 09:26:00;;;;;;;17.88;12.68;;;29.50;82.00;;;;;;4227505;28;20064;-66
2022/02/07 09:28:05;;;;;;;16.83;12.25;;;29.50;82.40;;;;;;4227072;28;20051;-65
2022/02/07 09:30:10;;;;;;;15.27;11.90;;;29.50;82.50;;;;;;4223546;28;20074;-65
2022/02/07 09:32:14;;;;;;;14.32;11.30;;;29.40;82.80;;;;;;4217495;28;20043;-65
2022/02/07 09:34:18;;;;;;;15.07;10.85;;;29.40;83.30;;;;;;4220273;28;20040;-63
2022/02/07 09:36:23;;;;;;;21.58;10.90;;;29.40;83.80;;;;;;4227270;28;20122;-65
2022/02/07 09:38:28;;;;;;;17.00;10.40;;;29.50;83.20;;;;;;4227237;28;20048;-65
2022/02/07 09:40:33;;;;;;;16.35;10.75;;;29.50;83.10;;;;;;4220815;28;20439;-65
2022/02/07 09:42:41;;;;;;;14.57;10.75;;;29.50;83.00;;;;;;4219191;28;20063;-65
2022/02/07 09:44:51;;;;;;;13.15;10.13;;;29.40;83.10;;;;;;4213907;28;20050;-65
2022/02/07 09:46:57;;;;;;;13.02;9.98;;;29.40;83.60;;;;;;4212258;28;20072;-64
2022/02/07 09:49:03;;;;;;;15.00;10.60;;;29.40;84.40;;;;;;4218893;28;20123;-65
2022/02/07 09:51:09;;;;;;;15.75;11.68;;;29.40;83.50;;;;;;4221133;28;20046;-65
2022/02/07 09:53:13;;;;;;;16.50;11.85;;;29.40;83.60;;;;;;4220908;28;20040;-66
2022/02/07 09:55:17;;;;;;;13.98;11.40;;;29.30;83.70;;;;;;4224159;28;20073;-65
2022/02/07 09:57:22;;;;;;;13.68;10.98;;;29.30;84.00;;;;;;4220781;28;20058;-65
2022/02/07 09:59:29;;;;;;;13.88;10.52;;;29.30;84.40;;;;;;4219047;28;20040;-65
2022/02/07 10:01:36;;;;;;;17.08;10.85;;;29.30;84.70;;;;;;4218494;28;20485;-64
2022/02/07 10:03:52;;;;;;;23.65;11.35;;;29.30;85.10;;;;;;4222764;28;20051;-64
2022/02/07 10:06:15;;;;;;;18.30;11.00;;;29.30;85.20;;;;;;4223357;28;20031;-64
2022/02/07 10:10:41;;;;;;;25.20;11.35;;;29.30;85.00;;;;;;4226593;28;20043;-64
2022/02/07 10:19:58;;;;;;;15.32;10.82;;;29.30;85.60;;;;;;4222769;28;20060;-64
2022/02/07 10:45:28;;;;;;;16.42;11.25;;;29.10;88.10;;;;;;4228681;28;19923;-61
2022/02/07 10:47:44;;;;;;;15.75;11.57;;;29.00;88.30;;;;;;4229105;28;20389;-65
2022/02/07 10:50:04;;;;;;;15.45;11.45;;;29.00;88.80;;;;;;4230519;28;20071;-64
2022/02/07 10:52:08;;;;;;;18.20;12.15;;;29.00;88.80;;;;;;4229335;28;20048;-64
2022/02/07 10:54:13;;;;;;;16.55;11.93;;;29.00;88.80;;;;;;4227664;28;20039;-65
2022/02/07 10:56:20;;;;;;;17.48;12.05;;;29.00;89.00;;;;;;4229267;28;20040;-65
2022/02/07 10:58:24;;;;;;;22.05;12.73;;;29.00;89.20;;;;;;4228651;28;20482;-63
2022/02/07 11:00:36;;;;;;;18.80;11.90;;;29.00;89.60;;;;;;4222198;27;20079;-64
2022/02/07 11:05:10;;;;;;;18.98;13.90;;;28.90;90.10;;;;;;4221668;28;20040;-65
2022/02/07 11:07:17;;;;;;;18.90;13.30;;;28.90;90.50;;;;;;4226949;28;20048;-64
2022/02/07 11:09:27;;;;;;;18.40;13.80;;;28.80;90.40;;;;;;4230414;28;20047;-64
2022/02/07 11:13:55;;;;;;;22.20;14.68;;;28.80;90.50;;;;;;4231632;28;20047;-64
2022/02/07 11:16:07;;;;;;;21.65;14.82;;;28.80;90.60;;;;;;4231563;28;20115;-65
2022/02/07 11:20:54;;;;;;;21.02;14.40;;;28.70;90.70;;;;;;2424469;28;10001661;-65
2022/02/07 11:25:41;;;;;;;25.92;15.75;;;28.60;90.80;;;;;;4177057;28;20118;-65
2022/02/07 11:27:53;;;;;;;22.52;15.88;;;28.60;90.90;;;;;;4177049;28;20055;-65
2022/02/07 11:29:58;;;;;;;25.73;15.48;;;28.60;91.10;;;;;;4186780;28;20503;-64
2022/02/07 11:32:07;;;;;;;23.37;15.93;;;28.60;91.20;;;;;;2419469;28;10001506;-64
2022/02/07 11:34:12;;;;;;;25.75;16.02;;;28.50;91.20;;;;;;4162264;28;20530;-64
2022/02/07 11:36:34;;;;;;;23.55;15.40;;;28.50;91.30;;;;;;4175336;28;20648;-64
2022/02/07 11:39:07;;;;;;;25.42;15.55;;;28.50;91.40;;;;;;3296248;28;10002171;-64
2022/02/07 11:41:12;;;;;;;25.00;16.95;;;28.50;91.50;;;;;;4194417;28;20041;-65
2022/02/07 11:43:20;;;;;;;26.33;16.20;;;28.40;91.70;;;;;;4193275;28;20047;-65
2022/02/07 11:45:25;;;;;;;28.65;17.88;;;28.40;91.70;;;;;;4196347;28;20076;-65
2022/02/07 11:47:31;;;;;;;30.35;17.27;;;28.40;91.70;;;;;;4195000;28;20087;-66
2022/02/07 11:49:39;;;;;;;25.73;17.83;;;28.40;91.70;;;;;;4194988;28;20430;-66
2022/02/07 11:51:43;;;;;;;30.30;18.13;;;28.40;91.70;;;;;;4195404;28;20044;-65
2022/02/07 11:53:53;;;;;;;27.58;18.25;;;28.40;91.80;;;;;;4210715;28;20066;-66
2022/02/07 11:56:08;;;;;;;25.13;17.60;;;28.40;91.90;;;;;;4192954;28;20103;-66
2022/02/07 11:58:25;;;;;;;25.77;18.65;;;28.30;92.00;;;;;;4195048;28;20056;-66
2022/02/07 12:00:33;;;;;;;31.83;20.38;;;28.30;92.10;;;;;;4194445;28;20379;-66
2022/02/07 12:02:40;;;;;;;29.95;20.40;;;28.20;92.20;;;;;;4195083;28;20137;-63
2022/02/07 12:04:51;;;;;;;27.95;19.73;;;28.20;92.40;;;;;;4195357;28;20033;-65
2022/02/07 12:07:09;;;;;;;28.23;19.70;;;28.20;92.40;;;;;;4208590;28;20040;-66
2022/02/07 12:09:21;;;;;;;28.45;20.42;;;28.20;92.50;;;;;;4191506;28;20041;-65
2022/02/07 12:11:44;;;;;;;30.92;21.42;;;28.20;92.50;;;;;;4196859;28;20561;-66
2022/02/07 12:13:48;;;;;;;32.40;20.55;;;28.20;92.60;;;;;;4195347;28;20053;-66
2022/02/07 12:15:54;;;;;;;30.35;20.48;;;28.10;92.60;;;;;;4195162;28;20490;-65
2022/02/07 12:18:00;;;;;;;36.22;21.00;;;28.10;92.70;;;;;;4193584;28;20071;-66
2022/02/07 12:20:06;;;;;;;31.90;20.17;;;28.10;92.80;;;;;;4192668;28;20029;-64
2022/02/07 12:22:17;;;;;;;33.28;22.42;;;28.10;92.90;;;;;;4194404;28;20044;-65
2022/02/07 12:24:54;;;;;;;31.50;22.90;;;28.10;93.00;;;;;;4193315;28;20068;-65
2022/02/07 12:27:01;;;;;;;35.38;24.25;;;28.10;93.00;;;;;;4194786;28;20048;-66
2022/02/07 12:29:19;;;;;;;41.53;26.20;;;28.10;93.10;;;;;;4192057;28;20037;-64
2022/02/07 12:31:24;;;;;;;37.13;25.85;;;28.10;93.20;;;;;;4207670;28;20044;-66
2022/02/07 12:33:29;;;;;;;44.45;25.85;;;28.00;93.20;;;;;;4192506;28;20053;-64
2022/02/07 12:35:37;;;;;;;42.80;26.80;;;28.00;93.30;;;;;;4192794;28;20040;-67
2022/02/07 12:37:41;;;;;;;34.00;25.83;;;28.00;93.30;;;;;;4193185;28;20045;-67
2022/02/07 12:39:48;;;;;;;37.05;25.90;;;28.00;93.30;;;;;;4192356;28;20739;-66
2022/02/07 12:41:58;;;;;;;37.70;26.75;;;28.00;93.40;;;;;;4193943;28;20040;-65
2022/02/07 12:44:06;;;;;;;36.25;27.40;;;28.00;93.40;;;;;;4194040;28;20044;-66
2022/02/07 12:46:13;;;;;;;36.95;27.75;;;28.00;93.50;;;;;;4193445;28;20044;-66
2022/02/07 12:48:23;;;;;;;44.72;28.55;;;28.00;93.60;;;;;;4189382;28;20464;-66
2022/02/07 12:50:29;;;;;;;39.83;27.55;;;28.00;93.90;;;;;;4194848;28;20402;-66
2022/02/07 12:52:37;;;;;;;35.33;26.70;;;28.00;93.60;;;;;;4194151;28;20040;-65
2022/02/07 12:54:41;;;;;;;35.92;26.58;;;28.00;93.60;;;;;;4192170;28;20135;-65
2022/02/07 12:56:45;;;;;;;41.17;27.58;;;28.00;93.70;;;;;;4193325;28;20487;-66
2022/02/07 12:58:52;;;;;;;32.45;25.10;;;28.00;93.70;;;;;;4194951;28;20047;-65
2022/02/07 13:00:56;;;;;;;30.98;25.30;;;28.00;93.80;;;;;;4194233;28;20048;-66
2022/02/07 13:03:02;;;;;;;34.85;25.35;;;28.00;94.10;;;;;;4194774;28;20044;-66
2022/02/07 13:05:11;;;;;;;38.17;27.30;;;28.00;93.80;;;;;;4193472;28;20052;-66
2022/02/07 13:07:20;;;;;;;38.58;28.17;;;28.00;93.90;;;;;;4195010;28;20044;-66
2022/02/07 13:09:30;;;;;;;41.25;27.50;;;28.00;93.90;;;;;;4192749;28;20044;-65
2022/02/07 13:11:35;;;;;;;40.45;29.90;;;27.90;93.90;;;;;;4195276;28;20036;-66
2022/02/07 13:13:48;;;;;;;39.17;29.83;;;27.90;93.90;;;;;;4195265;28;20051;-66
2022/02/07 13:15:52;;;;;;;43.58;28.77;;;27.90;94.00;;;;;;4194108;28;20048;-66
2022/02/07 13:18:02;;;;;;;38.42;29.67;;;27.90;94.00;;;;;;4195239;28;20048;-67
2022/02/07 13:20:08;;;;;;;44.05;29.05;;;27.90;94.10;;;;;;4194284;28;20128;-66
2022/02/07 13:22:15;;;;;;;43.20;29.80;;;27.90;94.30;;;;;;4194508;28;20045;-65